sensor_id;sensor_type;location;lat;lon;timestamp;temperature;humidity
40053;DHT22;25758;48.200;16.338;2024-02-15T00:01:22;11.10;99.90
40053;DHT22;25758;48.200;16.338;2024-02-15T00:06:14;11.00;99.90
40053;DHT22;25758;48.200;16.338;2024-02-15T00:08:40;11.00;99.90
40053;DHT22;25758;48.200;16.338;2024-02-15T00:11:06;10.90;99.90
40053;DHT22;25758;48.200;16.338;2024-02-15T00:13:31;10.90;99.90
40053;DHT22;25758;48.200;16.338;2024-02-15T00:15:59;10.90;99.90
40053;DHT22;25758;48.200;16.338;2024-02-15T00:18:25;10.90;99.90
40053;DHT22;25758;48.200;16.338;2024-02-15T00:20:50;10.80;99.90
40053;DHT22;25758;48.200;16.338;2024-02-15T00:25:42;10.80;99.90
40053;DHT22;25758;48.200;16.338;2024-02-15T00:28:12;10.80;99.90
40053;DHT22;25758;48.200;16.338;2024-02-15T00:30:38;10.70;99.90
40053;DHT22;25758;48.200;16.338;2024-02-15T00:33:04;10.90;99.90
40053;DHT22;25758;48.200;16.338;2024-02-15T00:35:29;10.90;99.90
40053;DHT22;25758;48.200;16.338;2024-02-15T00:37:55;10.90;99.90
40053;DHT22;25758;48.200;16.338;2024-02-15T00:40:21;10.90;99.90
40053;DHT22;25758;48.200;16.338;2024-02-15T00:42:46;10.90;99.90
40053;DHT22;25758;48.200;16.338;2024-02-15T00:45:12;10.90;99.90
40053;DHT22;25758;48.200;16.338;2024-02-15T00:47:38;11.00;99.90
40053;DHT22;25758;48.200;16.338;2024-02-15T00:50:04;11.00;99.90
40053;DHT22;25758;48.200;16.338;2024-02-15T00:52:30;11.00;99.90
40053;DHT22;25758;48.200;16.338;2024-02-15T00:57:22;10.90;99.90
40053;DHT22;25758;48.200;16.338;2024-02-15T00:59:48;10.90;99.90
40053;DHT22;25758;48.200;16.338;2024-02-15T01:02:14;10.90;99.90
40053;DHT22;25758;48.200;16.338;2024-02-15T01:04:39;10.90;99.90
40053;DHT22;25758;48.200;16.338;2024-02-15T01:07:05;10.80;99.90
40053;DHT22;25758;48.200;16.338;2024-02-15T01:09:31;10.80;99.90
40053;DHT22;25758;48.200;16.338;2024-02-15T01:11:56;10.80;99.90
40053;DHT22;25758;48.200;16.338;2024-02-15T01:14:22;10.80;99.90
40053;DHT22;25758;48.200;16.338;2024-02-15T01:16:47;10.80;99.90
40053;DHT22;25758;48.200;16.338;2024-02-15T01:19:13;10.80;99.90
40053;DHT22;25758;48.200;16.338;2024-02-15T01:21:39;10.70;99.90
40053;DHT22;25758;48.200;16.338;2024-02-15T01:24:04;10.70;99.90
40053;DHT22;25758;48.200;16.338;2024-02-15T01:26:32;10.40;99.90
40053;DHT22;25758;48.200;16.338;2024-02-15T01:28:58;10.10;99.90
40053;DHT22;25758;48.200;16.338;2024-02-15T01:33:49;10.00;99.90
40053;DHT22;25758;48.200;16.338;2024-02-15T01:36:16;10.00;99.90
40053;DHT22;25758;48.200;16.338;2024-02-15T01:38:42;10.00;99.90
40053;DHT22;25758;48.200;16.338;2024-02-15T01:41:08;10.00;99.90
40053;DHT22;25758;48.200;16.338;2024-02-15T01:43:34;10.10;99.90
40053;DHT22;25758;48.200;16.338;2024-02-15T01:46:00;10.10;99.90
40053;DHT22;25758;48.200;16.338;2024-02-15T01:48:30;10.20;99.90
40053;DHT22;25758;48.200;16.338;2024-02-15T01:50:56;10.20;99.90
40053;DHT22;25758;48.200;16.338;2024-02-15T01:53:24;10.30;99.90
40053;DHT22;25758;48.200;16.338;2024-02-15T01:55:52;10.30;99.90
40053;DHT22;25758;48.200;16.338;2024-02-15T01:58:19;10.40;99.90
40053;DHT22;25758;48.200;16.338;2024-02-15T02:00:45;10.40;99.90
40053;DHT22;25758;48.200;16.338;2024-02-15T02:03:13;10.50;99.90
40053;DHT22;25758;48.200;16.338;2024-02-15T02:05:40;10.20;99.90
40053;DHT22;25758;48.200;16.338;2024-02-15T02:08:06;10.10;99.90
40053;DHT22;25758;48.200;16.338;2024-02-15T02:10:36;10.10;99.90
40053;DHT22;25758;48.200;16.338;2024-02-15T02:13:02;10.00;99.90
40053;DHT22;25758;48.200;16.338;2024-02-15T02:15:28;9.90;99.90
40053;DHT22;25758;48.200;16.338;2024-02-15T02:18:02;9.90;99.90
40053;DHT22;25758;48.200;16.338;2024-02-15T02:20:30;10.00;99.90
40053;DHT22;25758;48.200;16.338;2024-02-15T02:23:08;10.10;99.90
40053;DHT22;25758;48.200;16.338;2024-02-15T02:25:35;10.10;99.90
40053;DHT22;25758;48.200;16.338;2024-02-15T02:28:01;10.20;99.90
40053;DHT22;25758;48.200;16.338;2024-02-15T02:30:27;10.30;99.90
40053;DHT22;25758;48.200;16.338;2024-02-15T02:32:58;10.30;99.90
40053;DHT22;25758;48.200;16.338;2024-02-15T02:35:24;10.30;99.90
40053;DHT22;25758;48.200;16.338;2024-02-15T02:37:51;10.20;99.90
40053;DHT22;25758;48.200;16.338;2024-02-15T02:40:18;9.90;99.90
40053;DHT22;25758;48.200;16.338;2024-02-15T02:42:55;9.90;99.90
40053;DHT22;25758;48.200;16.338;2024-02-15T02:47:55;9.70;99.90
40053;DHT22;25758;48.200;16.338;2024-02-15T02:50:22;9.70;99.90
40053;DHT22;25758;48.200;16.338;2024-02-15T02:55:17;9.50;99.90
40053;DHT22;25758;48.200;16.338;2024-02-15T02:57:43;9.40;99.90
40053;DHT22;25758;48.200;16.338;2024-02-15T03:00:10;9.30;99.90
40053;DHT22;25758;48.200;16.338;2024-02-15T03:02:45;9.30;99.90
40053;DHT22;25758;48.200;16.338;2024-02-15T03:07:38;9.40;99.90
40053;DHT22;25758;48.200;16.338;2024-02-15T03:10:06;9.60;99.90
40053;DHT22;25758;48.200;16.338;2024-02-15T03:12:38;9.70;99.90
40053;DHT22;25758;48.200;16.338;2024-02-15T03:15:08;9.80;99.90
40053;DHT22;25758;48.200;16.338;2024-02-15T03:17:39;9.90;99.90
40053;DHT22;25758;48.200;16.338;2024-02-15T03:20:09;10.00;99.90
40053;DHT22;25758;48.200;16.338;2024-02-15T03:23:05;10.00;99.90
40053;DHT22;25758;48.200;16.338;2024-02-15T03:25:30;10.00;99.90
40053;DHT22;25758;48.200;16.338;2024-02-15T03:27:58;9.70;99.90
40053;DHT22;25758;48.200;16.338;2024-02-15T03:30:26;9.60;99.90
40053;DHT22;25758;48.200;16.338;2024-02-15T03:40:12;9.10;99.90
40053;DHT22;25758;48.200;16.338;2024-02-15T03:47:32;9.10;99.90
40053;DHT22;25758;48.200;16.338;2024-02-15T03:52:25;9.00;99.90
40053;DHT22;25758;48.200;16.338;2024-02-15T03:57:18;8.90;99.90
40053;DHT22;25758;48.200;16.338;2024-02-15T04:12:03;9.00;99.90
40053;DHT22;25758;48.200;16.338;2024-02-15T04:16:55;9.10;99.90
40053;DHT22;25758;48.200;16.338;2024-02-15T04:21:49;9.20;99.90
40053;DHT22;25758;48.200;16.338;2024-02-15T04:29:08;9.10;99.90
40053;DHT22;25758;48.200;16.338;2024-02-15T04:34:04;9.10;99.90
40053;DHT22;25758;48.200;16.338;2024-02-15T04:46:20;9.20;99.90
40053;DHT22;25758;48.200;16.338;2024-02-15T04:51:15;9.30;99.90
40053;DHT22;25758;48.200;16.338;2024-02-15T04:56:08;9.40;99.90
40053;DHT22;25758;48.200;16.338;2024-02-15T04:58:43;9.60;99.90
40053;DHT22;25758;48.200;16.338;2024-02-15T05:01:16;9.60;99.90
40053;DHT22;25758;48.200;16.338;2024-02-15T05:03:45;9.70;99.90
40053;DHT22;25758;48.200;16.338;2024-02-15T05:16:16;9.50;99.90
40053;DHT22;25758;48.200;16.338;2024-02-15T05:21:08;9.60;99.90
40053;DHT22;25758;48.200;16.338;2024-02-15T05:23:36;9.70;99.90
40053;DHT22;25758;48.200;16.338;2024-02-15T05:26:03;9.80;99.90
40053;DHT22;25758;48.200;16.338;2024-02-15T05:28:29;9.90;99.90
40053;DHT22;25758;48.200;16.338;2024-02-15T05:31:15;9.90;99.90
40053;DHT22;25758;48.200;16.338;2024-02-15T05:33:54;9.90;99.90
40053;DHT22;25758;48.200;16.338;2024-02-15T05:36:21;9.90;99.90
40053;DHT22;25758;48.200;16.338;2024-02-15T05:38:51;10.00;99.90
40053;DHT22;25758;48.200;16.338;2024-02-15T05:41:17;10.10;99.90
40053;DHT22;25758;48.200;16.338;2024-02-15T05:43:42;10.10;99.90
40053;DHT22;25758;48.200;16.338;2024-02-15T05:46:09;10.10;99.90
40053;DHT22;25758;48.200;16.338;2024-02-15T05:48:36;9.90;99.90
40053;DHT22;25758;48.200;16.338;2024-02-15T05:51:03;9.90;99.90
40053;DHT22;25758;48.200;16.338;2024-02-15T05:53:29;9.80;99.90
40053;DHT22;25758;48.200;16.338;2024-02-15T06:00:49;9.80;99.90
40053;DHT22;25758;48.200;16.338;2024-02-15T06:15:35;9.50;99.90
40053;DHT22;25758;48.200;16.338;2024-02-15T06:18:00;9.50;99.90
40053;DHT22;25758;48.200;16.338;2024-02-15T06:20:26;9.50;99.90
40053;DHT22;25758;48.200;16.338;2024-02-15T06:30:14;9.50;99.90
40053;DHT22;25758;48.200;16.338;2024-02-15T06:38:28;9.40;99.90
40053;DHT22;25758;48.200;16.338;2024-02-15T06:41:13;9.30;99.90
40053;DHT22;25758;48.200;16.338;2024-02-15T06:46:08;9.30;99.90
40053;DHT22;25758;48.200;16.338;2024-02-15T06:51:03;9.40;99.90
40053;DHT22;25758;48.200;16.338;2024-02-15T06:53:29;9.40;99.90
40053;DHT22;25758;48.200;16.338;2024-02-15T07:00:48;9.60;99.90
40053;DHT22;25758;48.200;16.338;2024-02-15T07:05:43;9.80;99.90
40053;DHT22;25758;48.200;16.338;2024-02-15T07:10:37;9.90;99.90
40053;DHT22;25758;48.200;16.338;2024-02-15T07:13:04;10.00;99.90
40053;DHT22;25758;48.200;16.338;2024-02-15T07:15:31;10.10;99.90
40053;DHT22;25758;48.200;16.338;2024-02-15T07:17:58;10.10;99.90
40053;DHT22;25758;48.200;16.338;2024-02-15T07:20:24;10.10;99.90
40053;DHT22;25758;48.200;16.338;2024-02-15T07:22:51;10.20;99.90
40053;DHT22;25758;48.200;16.338;2024-02-15T07:27:43;10.20;99.90
40053;DHT22;25758;48.200;16.338;2024-02-15T07:30:09;10.30;99.90
40053;DHT22;25758;48.200;16.338;2024-02-15T07:32:35;10.30;99.90
40053;DHT22;25758;48.200;16.338;2024-02-15T07:37:27;10.30;99.90
40053;DHT22;25758;48.200;16.338;2024-02-15T07:42:20;10.40;99.90
40053;DHT22;25758;48.200;16.338;2024-02-15T07:44:49;10.40;99.90
40053;DHT22;25758;48.200;16.338;2024-02-15T07:47:15;10.50;99.90
40053;DHT22;25758;48.200;16.338;2024-02-15T07:49:41;10.50;99.90
40053;DHT22;25758;48.200;16.338;2024-02-15T07:52:07;10.50;99.90
40053;DHT22;25758;48.200;16.338;2024-02-15T07:54:34;10.50;99.90
40053;DHT22;25758;48.200;16.338;2024-02-15T07:57:00;10.60;99.90
40053;DHT22;25758;48.200;16.338;2024-02-15T07:59:26;10.60;99.90
40053;DHT22;25758;48.200;16.338;2024-02-15T08:01:51;10.60;99.90
40053;DHT22;25758;48.200;16.338;2024-02-15T08:04:18;10.60;99.90
40053;DHT22;25758;48.200;16.338;2024-02-15T08:06:44;10.70;99.90
40053;DHT22;25758;48.200;16.338;2024-02-15T08:09:10;10.60;99.90
40053;DHT22;25758;48.200;16.338;2024-02-15T08:11:39;10.70;99.90
40053;DHT22;25758;48.200;16.338;2024-02-15T08:14:06;10.70;99.90
40053;DHT22;25758;48.200;16.338;2024-02-15T08:16:33;10.70;99.90
40053;DHT22;25758;48.200;16.338;2024-02-15T08:19:00;10.70;99.90
40053;DHT22;25758;48.200;16.338;2024-02-15T08:21:30;10.70;99.90
40053;DHT22;25758;48.200;16.338;2024-02-15T08:26:24;10.30;99.90
40053;DHT22;25758;48.200;16.338;2024-02-15T08:28:50;10.30;99.90
40053;DHT22;25758;48.200;16.338;2024-02-15T08:31:15;10.30;99.90
40053;DHT22;25758;48.200;16.338;2024-02-15T08:33:42;10.30;99.90
40053;DHT22;25758;48.200;16.338;2024-02-15T08:36:09;10.30;99.90
40053;DHT22;25758;48.200;16.338;2024-02-15T08:38:36;10.20;99.90
40053;DHT22;25758;48.200;16.338;2024-02-15T08:41:03;10.20;99.90
40053;DHT22;25758;48.200;16.338;2024-02-15T08:43:32;10.20;99.90
40053;DHT22;25758;48.200;16.338;2024-02-15T08:45:58;10.20;99.90
40053;DHT22;25758;48.200;16.338;2024-02-15T08:48:24;12.80;99.90
40053;DHT22;25758;48.200;16.338;2024-02-15T08:50:51;10.20;99.90
40053;DHT22;25758;48.200;16.338;2024-02-15T08:55:45;10.30;99.90
40053;DHT22;25758;48.200;16.338;2024-02-15T08:58:11;10.30;99.90
40053;DHT22;25758;48.200;16.338;2024-02-15T09:00:36;10.30;99.90
40053;DHT22;25758;48.200;16.338;2024-02-15T09:03:06;10.30;99.90
40053;DHT22;25758;48.200;16.338;2024-02-15T09:05:32;10.30;99.90
40053;DHT22;25758;48.200;16.338;2024-02-15T09:07:58;10.30;99.90
40053;DHT22;25758;48.200;16.338;2024-02-15T09:10:23;10.30;99.90
40053;DHT22;25758;48.200;16.338;2024-02-15T09:12:49;10.30;99.90
40053;DHT22;25758;48.200;16.338;2024-02-15T09:15:15;10.40;99.90
40053;DHT22;25758;48.200;16.338;2024-02-15T09:17:41;10.40;99.90
40053;DHT22;25758;48.200;16.338;2024-02-15T09:20:10;10.40;99.90
40053;DHT22;25758;48.200;16.338;2024-02-15T09:25:06;10.40;99.90
40053;DHT22;25758;48.200;16.338;2024-02-15T09:27:32;10.50;99.90
40053;DHT22;25758;48.200;16.338;2024-02-15T09:29:58;10.60;99.90
40053;DHT22;25758;48.200;16.338;2024-02-15T09:32:23;10.70;99.90
40053;DHT22;25758;48.200;16.338;2024-02-15T09:37:15;10.90;99.90
40053;DHT22;25758;48.200;16.338;2024-02-15T09:39:41;10.90;99.90
40053;DHT22;25758;48.200;16.338;2024-02-15T09:42:06;11.00;99.90
40053;DHT22;25758;48.200;16.338;2024-02-15T09:44:32;11.00;99.90
40053;DHT22;25758;48.200;16.338;2024-02-15T09:47:04;11.00;99.90
40053;DHT22;25758;48.200;16.338;2024-02-15T09:49:39;11.10;99.90
40053;DHT22;25758;48.200;16.338;2024-02-15T09:52:09;11.20;99.90
40053;DHT22;25758;48.200;16.338;2024-02-15T09:54:41;11.20;99.90
40053;DHT22;25758;48.200;16.338;2024-02-15T09:57:11;11.20;99.90
40053;DHT22;25758;48.200;16.338;2024-02-15T09:59:38;11.20;99.90
40053;DHT22;25758;48.200;16.338;2024-02-15T10:02:04;11.20;99.90
40053;DHT22;25758;48.200;16.338;2024-02-15T10:04:34;11.30;99.90
40053;DHT22;25758;48.200;16.338;2024-02-15T10:07:00;11.40;99.90
40053;DHT22;25758;48.200;16.338;2024-02-15T10:09:27;11.50;99.90
40053;DHT22;25758;48.200;16.338;2024-02-15T10:11:57;11.60;99.90
40053;DHT22;25758;48.200;16.338;2024-02-15T10:14:28;11.60;99.90
40053;DHT22;25758;48.200;16.338;2024-02-15T10:16:55;11.60;99.90
40053;DHT22;25758;48.200;16.338;2024-02-15T10:19:21;11.70;99.90
40053;DHT22;25758;48.200;16.338;2024-02-15T10:21:53;11.80;99.90
40053;DHT22;25758;48.200;16.338;2024-02-15T10:24:24;11.90;99.90
40053;DHT22;25758;48.200;16.338;2024-02-15T10:26:50;11.90;99.90
40053;DHT22;25758;48.200;16.338;2024-02-15T10:29:16;12.00;99.90
40053;DHT22;25758;48.200;16.338;2024-02-15T10:31:53;11.40;99.90
40053;DHT22;25758;48.200;16.338;2024-02-15T10:34:20;12.30;99.90
40053;DHT22;25758;48.200;16.338;2024-02-15T10:36:46;12.40;99.90
40053;DHT22;25758;48.200;16.338;2024-02-15T10:41:44;12.70;99.90
40053;DHT22;25758;48.200;16.338;2024-02-15T10:44:13;12.90;99.90
40053;DHT22;25758;48.200;16.338;2024-02-15T10:46:40;13.00;99.90
40053;DHT22;25758;48.200;16.338;2024-02-15T10:49:07;13.10;99.90
40053;DHT22;25758;48.200;16.338;2024-02-15T10:51:34;13.30;99.90
40053;DHT22;25758;48.200;16.338;2024-02-15T10:54:02;13.30;99.90
40053;DHT22;25758;48.200;16.338;2024-02-15T10:56:36;13.30;99.90
40053;DHT22;25758;48.200;16.338;2024-02-15T10:59:17;13.40;99.90
40053;DHT22;25758;48.200;16.338;2024-02-15T11:01:46;13.40;99.90
40053;DHT22;25758;48.200;16.338;2024-02-15T11:04:14;13.50;99.90
40053;DHT22;25758;48.200;16.338;2024-02-15T11:06:42;13.50;99.90
40053;DHT22;25758;48.200;16.338;2024-02-15T11:09:10;13.50;99.90
40053;DHT22;25758;48.200;16.338;2024-02-15T11:11:37;13.60;99.90
40053;DHT22;25758;48.200;16.338;2024-02-15T11:14:37;13.70;99.90
40053;DHT22;25758;48.200;16.338;2024-02-15T11:17:03;14.00;99.90
40053;DHT22;25758;48.200;16.338;2024-02-15T11:22:12;14.70;99.90
40053;DHT22;25758;48.200;16.338;2024-02-15T11:24:50;14.90;99.90
40053;DHT22;25758;48.200;16.338;2024-02-15T11:27:30;14.90;99.90
40053;DHT22;25758;48.200;16.338;2024-02-15T11:30:01;14.90;99.90
40053;DHT22;25758;48.200;16.338;2024-02-15T11:42:39;14.80;99.90
40053;DHT22;25758;48.200;16.338;2024-02-15T11:45:06;14.80;99.90
40053;DHT22;25758;48.200;16.338;2024-02-15T11:47:37;14.80;99.90
40053;DHT22;25758;48.200;16.338;2024-02-15T11:50:05;14.90;99.90
40053;DHT22;25758;48.200;16.338;2024-02-15T11:52:33;14.90;99.90
40053;DHT22;25758;48.200;16.338;2024-02-15T11:55:06;14.80;99.90
40053;DHT22;25758;48.200;16.338;2024-02-15T11:57:36;14.90;99.90
40053;DHT22;25758;48.200;16.338;2024-02-15T12:00:22;15.20;99.90
40053;DHT22;25758;48.200;16.338;2024-02-15T12:03:07;15.10;99.90
40053;DHT22;25758;48.200;16.338;2024-02-15T12:05:51;15.10;99.90
40053;DHT22;25758;48.200;16.338;2024-02-15T12:08:35;15.10;99.90
40053;DHT22;25758;48.200;16.338;2024-02-15T12:11:19;15.10;99.90
40053;DHT22;25758;48.200;16.338;2024-02-15T12:14:03;15.10;99.90
40053;DHT22;25758;48.200;16.338;2024-02-15T12:17:02;15.10;99.90
40053;DHT22;25758;48.200;16.338;2024-02-15T12:19:48;15.20;99.90
40053;DHT22;25758;48.200;16.338;2024-02-15T12:22:21;15.20;99.90
40053;DHT22;25758;48.200;16.338;2024-02-15T12:24:58;15.20;99.90
40053;DHT22;25758;48.200;16.338;2024-02-15T12:27:24;15.10;99.90
40053;DHT22;25758;48.200;16.338;2024-02-15T12:29:55;15.00;99.90
40053;DHT22;25758;48.200;16.338;2024-02-15T12:32:25;15.00;99.90
40053;DHT22;25758;48.200;16.338;2024-02-15T12:34:52;15.20;99.90
40053;DHT22;25758;48.200;16.338;2024-02-15T12:37:19;15.30;99.90
40053;DHT22;25758;48.200;16.338;2024-02-15T12:39:47;15.50;99.90
40053;DHT22;25758;48.200;16.338;2024-02-15T12:42:13;15.70;99.90
40053;DHT22;25758;48.200;16.338;2024-02-15T12:44:43;15.90;99.90
40053;DHT22;25758;48.200;16.338;2024-02-15T12:47:18;15.90;99.90
40053;DHT22;25758;48.200;16.338;2024-02-15T12:49:44;16.20;99.90
40053;DHT22;25758;48.200;16.338;2024-02-15T12:52:38;16.40;99.90
40053;DHT22;25758;48.200;16.338;2024-02-15T12:55:11;16.60;99.90
40053;DHT22;25758;48.200;16.338;2024-02-15T12:57:37;16.90;99.90
40053;DHT22;25758;48.200;16.338;2024-02-15T13:00:07;17.10;99.90
40053;DHT22;25758;48.200;16.338;2024-02-15T13:02:40;17.20;99.90
40053;DHT22;25758;48.200;16.338;2024-02-15T13:05:06;17.40;99.90
40053;DHT22;25758;48.200;16.338;2024-02-15T13:07:38;17.50;99.90
40053;DHT22;25758;48.200;16.338;2024-02-15T13:10:04;17.50;99.90
40053;DHT22;25758;48.200;16.338;2024-02-15T13:12:36;17.40;99.90
40053;DHT22;25758;48.200;16.338;2024-02-15T13:15:04;17.20;99.90
40053;DHT22;25758;48.200;16.338;2024-02-15T13:17:30;17.00;99.90
40053;DHT22;25758;48.200;16.338;2024-02-15T13:22:32;16.60;99.90
40053;DHT22;25758;48.200;16.338;2024-02-15T13:24:59;16.50;99.90
40053;DHT22;25758;48.200;16.338;2024-02-15T13:29:51;16.00;99.90
40053;DHT22;25758;48.200;16.338;2024-02-15T13:32:18;15.90;99.90
40053;DHT22;25758;48.200;16.338;2024-02-15T13:34:49;15.80;99.90
40053;DHT22;25758;48.200;16.338;2024-02-15T13:37:22;15.80;99.90
40053;DHT22;25758;48.200;16.338;2024-02-15T13:39:49;15.70;99.90
40053;DHT22;25758;48.200;16.338;2024-02-15T13:42:15;15.60;99.90
40053;DHT22;25758;48.200;16.338;2024-02-15T13:44:43;15.70;99.90
40053;DHT22;25758;48.200;16.338;2024-02-15T13:47:09;15.70;99.90
40053;DHT22;25758;48.200;16.338;2024-02-15T13:49:37;15.80;99.90
40053;DHT22;25758;48.200;16.338;2024-02-15T13:52:04;15.90;99.90
40053;DHT22;25758;48.200;16.338;2024-02-15T13:54:31;16.00;99.90
40053;DHT22;25758;48.200;16.338;2024-02-15T13:56:58;16.00;99.90
40053;DHT22;25758;48.200;16.338;2024-02-15T13:59:26;16.10;99.90
40053;DHT22;25758;48.200;16.338;2024-02-15T14:01:52;16.10;99.90
40053;DHT22;25758;48.200;16.338;2024-02-15T14:04:19;16.10;99.90
40053;DHT22;25758;48.200;16.338;2024-02-15T14:06:44;16.20;99.90
40053;DHT22;25758;48.200;16.338;2024-02-15T14:09:10;16.20;99.90
40053;DHT22;25758;48.200;16.338;2024-02-15T14:14:05;16.10;99.90
40053;DHT22;25758;48.200;16.338;2024-02-15T14:18:58;15.90;99.90
40053;DHT22;25758;48.200;16.338;2024-02-15T14:21:24;15.80;99.90
40053;DHT22;25758;48.200;16.338;2024-02-15T14:26:16;15.70;99.90
40053;DHT22;25758;48.200;16.338;2024-02-15T14:28:43;15.60;99.90
40053;DHT22;25758;48.200;16.338;2024-02-15T14:31:11;15.60;99.90
40053;DHT22;25758;48.200;16.338;2024-02-15T14:33:55;15.60;99.90
40053;DHT22;25758;48.200;16.338;2024-02-15T14:38:47;15.50;99.90
40053;DHT22;25758;48.200;16.338;2024-02-15T14:43:40;15.40;99.90
40053;DHT22;25758;48.200;16.338;2024-02-15T14:46:05;15.40;99.90
40053;DHT22;25758;48.200;16.338;2024-02-15T14:48:33;15.30;99.90
40053;DHT22;25758;48.200;16.338;2024-02-15T14:53:25;15.10;99.90
40053;DHT22;25758;48.200;16.338;2024-02-15T14:55:53;14.90;99.90
40053;DHT22;25758;48.200;16.338;2024-02-15T14:58:20;14.90;99.90
40053;DHT22;25758;48.200;16.338;2024-02-15T15:00:46;14.80;99.90
40053;DHT22;25758;48.200;16.338;2024-02-15T15:05:41;14.70;99.90
40053;DHT22;25758;48.200;16.338;2024-02-15T15:08:26;14.70;99.90
40053;DHT22;25758;48.200;16.338;2024-02-15T15:13:54;14.50;99.90
40053;DHT22;25758;48.200;16.338;2024-02-15T15:18:47;14.40;99.90
40053;DHT22;25758;48.200;16.338;2024-02-15T15:21:15;14.30;99.90
40053;DHT22;25758;48.200;16.338;2024-02-15T15:23:42;14.30;99.90
40053;DHT22;25758;48.200;16.338;2024-02-15T15:28:39;14.10;99.90
40053;DHT22;25758;48.200;16.338;2024-02-15T15:31:06;14.10;99.90
40053;DHT22;25758;48.200;16.338;2024-02-15T15:33:32;14.10;99.90
40053;DHT22;25758;48.200;16.338;2024-02-15T15:35:59;14.00;99.90
40053;DHT22;25758;48.200;16.338;2024-02-15T15:38:25;14.00;99.90
40053;DHT22;25758;48.200;16.338;2024-02-15T15:40:52;13.90;99.90
40053;DHT22;25758;48.200;16.338;2024-02-15T15:43:18;13.80;99.90
40053;DHT22;25758;48.200;16.338;2024-02-15T15:45:45;13.70;99.90
40053;DHT22;25758;48.200;16.338;2024-02-15T15:53:06;13.50;99.90
40053;DHT22;25758;48.200;16.338;2024-02-15T15:55:32;13.50;99.90
40053;DHT22;25758;48.200;16.338;2024-02-15T15:57:58;13.50;99.90
40053;DHT22;25758;48.200;16.338;2024-02-15T16:00:24;13.50;99.90
40053;DHT22;25758;48.200;16.338;2024-02-15T16:05:22;13.30;99.90
40053;DHT22;25758;48.200;16.338;2024-02-15T16:07:47;13.20;99.90
40053;DHT22;25758;48.200;16.338;2024-02-15T16:10:14;13.30;99.90
40053;DHT22;25758;48.200;16.338;2024-02-15T16:12:42;13.20;99.90
40053;DHT22;25758;48.200;16.338;2024-02-15T16:15:09;13.20;99.90
40053;DHT22;25758;48.200;16.338;2024-02-15T16:17:36;13.20;99.90
40053;DHT22;25758;48.200;16.338;2024-02-15T16:20:08;13.20;99.90
40053;DHT22;25758;48.200;16.338;2024-02-15T16:22:37;13.20;99.90
40053;DHT22;25758;48.200;16.338;2024-02-15T16:25:04;13.00;99.90
40053;DHT22;25758;48.200;16.338;2024-02-15T16:27:38;13.10;99.90
40053;DHT22;25758;48.200;16.338;2024-02-15T16:30:06;13.00;99.90
40053;DHT22;25758;48.200;16.338;2024-02-15T16:32:34;13.00;99.90
40053;DHT22;25758;48.200;16.338;2024-02-15T16:35:04;13.00;99.90
40053;DHT22;25758;48.200;16.338;2024-02-15T16:37:38;12.80;99.90
40053;DHT22;25758;48.200;16.338;2024-02-15T16:40:08;12.80;99.90
40053;DHT22;25758;48.200;16.338;2024-02-15T16:42:35;12.80;99.90
40053;DHT22;25758;48.200;16.338;2024-02-15T16:45:08;12.80;99.90
40053;DHT22;25758;48.200;16.338;2024-02-15T16:47:34;12.80;99.90
40053;DHT22;25758;48.200;16.338;2024-02-15T16:52:27;12.70;99.90
40053;DHT22;25758;48.200;16.338;2024-02-15T16:54:53;12.60;99.90
40053;DHT22;25758;48.200;16.338;2024-02-15T17:04:37;12.60;99.90
40053;DHT22;25758;48.200;16.338;2024-02-15T17:07:03;12.50;99.90
40053;DHT22;25758;48.200;16.338;2024-02-15T17:09:29;12.50;99.90
40053;DHT22;25758;48.200;16.338;2024-02-15T17:14:21;12.40;99.90
40053;DHT22;25758;48.200;16.338;2024-02-15T17:16:47;12.40;99.90
40053;DHT22;25758;48.200;16.338;2024-02-15T17:19:13;12.40;99.90
40053;DHT22;25758;48.200;16.338;2024-02-15T17:21:42;12.40;99.90
40053;DHT22;25758;48.200;16.338;2024-02-15T17:24:08;12.40;99.90
40053;DHT22;25758;48.200;16.338;2024-02-15T17:26:44;12.30;99.90
40053;DHT22;25758;48.200;16.338;2024-02-15T17:29:11;12.30;99.90
40053;DHT22;25758;48.200;16.338;2024-02-15T17:31:37;12.30;99.90
40053;DHT22;25758;48.200;16.338;2024-02-15T17:34:07;12.30;99.90
40053;DHT22;25758;48.200;16.338;2024-02-15T17:36:39;12.20;99.90
40053;DHT22;25758;48.200;16.338;2024-02-15T17:39:06;12.20;99.90
40053;DHT22;25758;48.200;16.338;2024-02-15T17:41:35;12.10;99.90
40053;DHT22;25758;48.200;16.338;2024-02-15T17:44:02;12.10;99.90
40053;DHT22;25758;48.200;16.338;2024-02-15T17:46:31;12.10;99.90
40053;DHT22;25758;48.200;16.338;2024-02-15T17:48:57;12.10;99.90
40053;DHT22;25758;48.200;16.338;2024-02-15T17:51:23;11.90;99.90
40053;DHT22;25758;48.200;16.338;2024-02-15T17:53:49;12.00;99.90
40053;DHT22;25758;48.200;16.338;2024-02-15T17:56:15;11.90;99.90
40053;DHT22;25758;48.200;16.338;2024-02-15T17:58:41;12.00;99.90
40053;DHT22;25758;48.200;16.338;2024-02-15T18:01:10;12.00;99.90
40053;DHT22;25758;48.200;16.338;2024-02-15T18:03:37;12.00;99.90
40053;DHT22;25758;48.200;16.338;2024-02-15T18:06:03;11.90;99.90
40053;DHT22;25758;48.200;16.338;2024-02-15T18:10:55;11.80;99.90
40053;DHT22;25758;48.200;16.338;2024-02-15T18:13:22;11.80;99.90
40053;DHT22;25758;48.200;16.338;2024-02-15T18:18:19;11.80;99.90
40053;DHT22;25758;48.200;16.338;2024-02-15T18:20:44;11.80;99.90
40053;DHT22;25758;48.200;16.338;2024-02-15T18:25:36;11.70;99.90
40053;DHT22;25758;48.200;16.338;2024-02-15T18:28:03;11.70;99.90
40053;DHT22;25758;48.200;16.338;2024-02-15T18:30:28;11.60;99.90
40053;DHT22;25758;48.200;16.338;2024-02-15T18:33:09;11.70;99.90
40053;DHT22;25758;48.200;16.338;2024-02-15T18:35:36;11.60;99.90
40053;DHT22;25758;48.200;16.338;2024-02-15T18:38:02;11.60;99.90
40053;DHT22;25758;48.200;16.338;2024-02-15T18:40:29;11.60;99.90
40053;DHT22;25758;48.200;16.338;2024-02-15T18:45:22;11.50;99.90
40053;DHT22;25758;48.200;16.338;2024-02-15T18:47:48;11.50;99.90
40053;DHT22;25758;48.200;16.338;2024-02-15T18:50:13;11.50;99.90
40053;DHT22;25758;48.200;16.338;2024-02-15T18:52:41;11.40;99.90
40053;DHT22;25758;48.200;16.338;2024-02-15T18:55:06;11.50;99.90
40053;DHT22;25758;48.200;16.338;2024-02-15T18:59:59;11.40;99.90
40053;DHT22;25758;48.200;16.338;2024-02-15T19:02:25;11.40;99.90
40053;DHT22;25758;48.200;16.338;2024-02-15T19:04:53;11.40;99.90
40053;DHT22;25758;48.200;16.338;2024-02-15T19:07:19;11.40;99.90
40053;DHT22;25758;48.200;16.338;2024-02-15T19:09:45;11.30;99.90